Terminal Aerodrome Forecast
Issued by NWS Melbourne, FL

Home | Current Version | Previous Version | Text Only | Print | Product List | Glossary On
Versions: 1 2 3 4 5 6 7 8 9 10 11 12 13 14 15 16
000
FTUS42 KMLB 281700
TAFVRB
TAF
KVRB 281730Z 2818/2918 20008KT P6SM SCT025 SCT250
     FM290000 17004KT P6SM FEW030 BKN250
     FM290800 00000KT 5SM BR FEW010 BKN040
      TEMPO 2908/2912 2SM BR BKN008
     FM291400 23006KT P6SM OVC015=

USA.gov is the U.S. government's official web portal to all federal, state and local government web resources and services.